Time;durP1;ratioP1;P1;durP2;ratioP2;P2;SDS_P1;SDS_P2;PMS_P1;PMS_P2;Temp;Humidity;BMP_temperature;BMP_pressure;BME280_temperature;BME280_humidity;BME280_pressure;Samples;Min_cycle;Max_cycle;Signal;HPM_P1;HPM_P2
2023/04/13 00:01:44;;;;;;;1.00;1.00;;;;;;;;;;4986967;28;20433;-84
2023/04/13 00:04:10;;;;;;;1.37;1.37;;;;;;;;;;5007507;28;20496;-84
2023/04/13 00:06:37;;;;;;;1.10;1.10;;;;;;;;;;4989040;28;20483;-84
2023/04/13 00:09:06;;;;;;;0.90;0.90;;;;;;;;;;5008733;28;20463;-84
2023/04/13 00:11:33;;;;;;;1.20;1.20;;;;;;;;;;4990118;28;20468;-85
2023/04/13 00:13:59;;;;;;;1.30;1.30;;;;;;;;;;4967784;28;20946;-84
2023/04/13 00:16:27;;;;;;;0.80;0.80;;;;;;;;;;4981091;28;20449;-83
2023/04/13 00:18:53;;;;;;;1.10;1.00;;;;;;;;;;4988197;28;20441;-83
2023/04/13 00:21:19;;;;;;;1.40;1.40;;;;;;;;;;4995831;28;20440;-84
2023/04/13 00:23:46;;;;;;;1.77;1.40;;;;;;;;;;5000163;28;20503;-83
2023/04/13 00:26:12;;;;;;;1.70;1.00;;;;;;;;;;4996105;28;20507;-84
2023/04/13 00:28:38;;;;;;;0.67;0.67;;;;;;;;;;4992404;28;20937;-84
2023/04/13 00:31:04;;;;;;;0.63;0.63;;;;;;;;;;5002179;28;20613;-83
2023/04/13 00:33:30;;;;;;;0.43;0.43;;;;;;;;;;4972364;28;20938;-83
2023/04/13 00:35:56;;;;;;;4.93;1.03;;;;;;;;;;4994251;28;21046;-83
2023/04/13 00:38:22;;;;;;;1.00;1.00;;;;;;;;;;4995972;28;20453;-83
2023/04/13 00:40:48;;;;;;;0.60;0.60;;;;;;;;;;4992891;28;20450;-82
2023/04/13 00:43:15;;;;;;;2.20;1.20;;;;;;;;;;5017865;28;20455;-84
2023/04/13 00:45:41;;;;;;;0.43;0.43;;;;;;;;;;4999273;28;20548;-85
2023/04/13 00:53:19;;;;;;;0.60;0.60;;;;;;;;;;4929443;23;20485;-86
2023/04/13 00:55:47;;;;;;;8.30;1.23;;;;;;;;;;4997204;28;20505;-85
2023/04/13 00:58:13;;;;;;;2.63;1.37;;;;;;;;;;5015320;28;20459;-85
2023/04/13 01:00:41;;;;;;;1.57;1.00;;;;;;;;;;4992570;28;20610;-85
2023/04/13 01:03:08;;;;;;;2.43;1.17;;;;;;;;;;5002504;28;20443;-85
2023/04/13 01:05:49;;;;;;;1.10;1.10;;;;;;;;;;4981746;28;20453;-85
2023/04/13 01:08:31;;;;;;;1.30;1.30;;;;;;;;;;4978789;28;20464;-85
2023/04/13 01:11:05;;;;;;;1.23;1.13;;;;;;;;;;4980784;28;20476;-83
2023/04/13 01:13:40;;;;;;;1.20;1.10;;;;;;;;;;4992628;28;20832;-83
2023/04/13 01:16:28;;;;;;;1.13;1.03;;;;;;;;;;4974134;28;20424;-83
2023/04/13 01:18:54;;;;;;;0.90;0.90;;;;;;;;;;4992221;28;20440;-84
2023/04/13 01:21:26;;;;;;;3.00;1.10;;;;;;;;;;4998675;28;20420;-84
2023/04/13 01:24:15;;;;;;;1.43;1.00;;;;;;;;;;4989636;28;20432;-83
2023/04/13 01:26:53;;;;;;;1.83;1.67;;;;;;;;;;4995145;28;20460;-83
2023/04/13 01:29:19;;;;;;;0.97;0.93;;;;;;;;;;4979070;28;20430;-84
2023/04/13 01:31:45;;;;;;;4.23;3.50;;;;;;;;;;5000172;28;20443;-84
2023/04/13 01:34:12;;;;;;;0.90;0.90;;;;;;;;;;4980834;28;20406;-84
2023/04/13 01:36:39;;;;;;;3.87;3.77;;;;;;;;;;4977093;28;20428;-84
2023/04/13 01:39:05;;;;;;;1.73;1.73;;;;;;;;;;4998644;28;20415;-85
2023/04/13 01:41:31;;;;;;;1.47;1.37;;;;;;;;;;4985276;28;20456;-83
2023/04/13 01:43:57;;;;;;;0.93;0.93;;;;;;;;;;4985021;28;20787;-83
2023/04/13 01:46:25;;;;;;;1.43;1.43;;;;;;;;;;4991582;28;20491;-85
2023/04/13 01:48:53;;;;;;;0.57;0.57;;;;;;;;;;4968911;28;20480;-83
2023/04/13 01:51:25;;;;;;;0.90;0.90;;;;;;;;;;5012894;28;20451;-86
2023/04/13 01:53:52;;;;;;;0.67;0.67;;;;;;;;;;4987273;28;20476;-85
2023/04/13 01:56:21;;;;;;;0.63;0.63;;;;;;;;;;5003671;28;20521;-85
2023/04/13 01:58:49;;;;;;;0.60;0.60;;;;;;;;;;4965956;28;20990;-86
2023/04/13 02:01:16;;;;;;;1.13;1.10;;;;;;;;;;5005072;28;20486;-88
2023/04/13 02:03:44;;;;;;;2.57;0.63;;;;;;;;;;4974885;28;20449;-88
2023/04/13 02:06:10;;;;;;;0.70;0.70;;;;;;;;;;4997031;28;20860;-87
2023/04/13 02:08:36;;;;;;;1.10;1.10;;;;;;;;;;5001023;28;20468;-87
2023/04/13 02:11:03;;;;;;;5.40;1.47;;;;;;;;;;4996003;28;20433;-88
2023/04/13 02:13:29;;;;;;;2.27;2.17;;;;;;;;;;5005469;28;20448;-83
2023/04/13 02:15:56;;;;;;;1.00;1.00;;;;;;;;;;4996920;28;20918;-84
2023/04/13 02:18:23;;;;;;;1.33;1.23;;;;;;;;;;4978984;28;20452;-84
2023/04/13 02:20:58;;;;;;;1.67;1.60;;;;;;;;;;4998988;28;20439;-84
2023/04/13 02:23:24;;;;;;;1.53;1.53;;;;;;;;;;4970885;28;20471;-83
2023/04/13 02:25:50;;;;;;;1.07;1.07;;;;;;;;;;4982633;28;20429;-83
2023/04/13 02:28:16;;;;;;;1.50;1.17;;;;;;;;;;4974778;28;20433;-84
2023/04/13 02:30:43;;;;;;;2.00;2.00;;;;;;;;;;4989395;28;20436;-84
2023/04/13 02:33:09;;;;;;;1.73;1.05;;;;;;;;;;4975493;28;20831;-83
2023/04/13 02:35:37;;;;;;;1.70;1.70;;;;;;;;;;4990641;28;20190;-83
2023/04/13 02:38:08;;;;;;;0.80;0.80;;;;;;;;;;4979964;28;20956;-82
2023/04/13 02:40:35;;;;;;;1.13;1.13;;;;;;;;;;4979517;28;20420;-82
2023/04/13 02:43:01;;;;;;;1.30;1.30;;;;;;;;;;4965450;28;20883;-82
2023/04/13 02:45:27;;;;;;;1.80;1.80;;;;;;;;;;4968918;28;20488;-82
2023/04/13 02:47:53;;;;;;;1.15;1.15;;;;;;;;;;4969236;28;20429;-82
2023/04/13 02:50:19;;;;;;;1.80;1.70;;;;;;;;;;4979890;28;20182;-81
2023/04/13 02:52:45;;;;;;;0.87;0.87;;;;;;;;;;5000204;28;20504;-81
2023/04/13 02:55:11;;;;;;;1.13;1.10;;;;;;;;;;4985581;28;20436;-81
2023/04/13 02:57:41;;;;;;;1.80;1.67;;;;;;;;;;4977726;28;21020;-82
2023/04/13 03:00:10;;;;;;;1.10;1.10;;;;;;;;;;4982888;28;20673;-81
2023/04/13 03:02:41;;;;;;;1.80;1.80;;;;;;;;;;4984493;28;20456;-81
2023/04/13 03:05:07;;;;;;;3.60;1.10;;;;;;;;;;4958230;28;20897;-81
2023/04/13 03:07:33;;;;;;;3.17;1.47;;;;;;;;;;4978594;28;20535;-81
2023/04/13 03:10:03;;;;;;;0.60;0.60;;;;;;;;;;4949966;28;20442;-82
2023/04/13 03:12:30;;;;;;;1.23;1.23;;;;;;;;;;4977810;28;20685;-81
2023/04/13 03:15:01;;;;;;;1.57;1.57;;;;;;;;;;4971111;28;20425;-82
2023/04/13 03:17:27;;;;;;;1.57;1.57;;;;;;;;;;4962542;28;20468;-81
2023/04/13 03:19:53;;;;;;;1.20;1.03;;;;;;;;;;4954578;28;20452;-82
2023/04/13 03:22:19;;;;;;;3.20;1.80;;;;;;;;;;4983633;28;21446;-81
2023/04/13 03:24:46;;;;;;;1.87;1.77;;;;;;;;;;4976633;28;20406;-82
2023/04/13 03:27:12;;;;;;;1.13;1.13;;;;;;;;;;4972017;28;20448;-82
2023/04/13 03:29:38;;;;;;;2.23;2.23;;;;;;;;;;4988157;28;20400;-82
2023/04/13 03:32:04;;;;;;;2.63;1.10;;;;;;;;;;4976072;28;20440;-82
2023/04/13 03:34:30;;;;;;;2.03;1.93;;;;;;;;;;4986333;28;20540;-82
2023/04/13 03:36:56;;;;;;;2.00;1.90;;;;;;;;;;4981397;28;20994;-82
2023/04/13 03:39:22;;;;;;;2.50;2.40;;;;;;;;;;4961765;28;21038;-83
2023/04/13 03:41:48;;;;;;;6.23;3.30;;;;;;;;;;4985078;28;21113;-83
2023/04/13 03:44:15;;;;;;;1.00;0.93;;;;;;;;;;4977805;28;20561;-82
2023/04/13 03:46:41;;;;;;;5.07;4.77;;;;;;;;;;4977142;28;20456;-83
2023/04/13 03:49:08;;;;;;;2.00;1.90;;;;;;;;;;4986113;28;20504;-83
2023/04/13 03:51:35;;;;;;;4.30;4.00;;;;;;;;;;4988960;28;20433;-81
2023/04/13 03:54:01;;;;;;;1.57;1.47;;;;;;;;;;4973893;28;21032;-84
2023/04/13 03:56:27;;;;;;;1.93;1.90;;;;;;;;;;4982436;28;21182;-82
2023/04/13 03:58:53;;;;;;;1.67;0.83;;;;;;;;;;4971597;28;20438;-83
2023/04/13 04:01:20;;;;;;;0.90;0.90;;;;;;;;;;4993364;28;20976;-83
2023/04/13 04:03:49;;;;;;;1.77;1.77;;;;;;;;;;4989785;28;20433;-82
2023/04/13 04:06:16;;;;;;;1.17;1.17;;;;;;;;;;5010694;28;20455;-83
2023/04/13 04:08:42;;;;;;;1.30;1.30;;;;;;;;;;4990499;28;20465;-84
2023/04/13 04:11:08;;;;;;;0.70;0.60;;;;;;;;;;5012114;28;20499;-83
2023/04/13 04:13:35;;;;;;;1.27;1.17;;;;;;;;;;4990982;28;20437;-84
2023/04/13 04:16:02;;;;;;;0.80;0.80;;;;;;;;;;5002269;28;20457;-85
2023/04/13 04:18:30;;;;;;;0.60;0.60;;;;;;;;;;4988875;28;20460;-83
2023/04/13 04:20:56;;;;;;;1.23;1.23;;;;;;;;;;4990577;28;21235;-82
2023/04/13 04:23:26;;;;;;;9.33;1.93;;;;;;;;;;4993203;28;20503;-81
2023/04/13 04:25:52;;;;;;;1.33;1.33;;;;;;;;;;4973532;28;20425;-81
2023/04/13 04:28:18;;;;;;;2.63;1.10;;;;;;;;;;4986833;28;20444;-83
2023/04/13 04:30:52;;;;;;;0.97;0.97;;;;;;;;;;4996275;28;20428;-82
2023/04/13 04:33:21;;;;;;;3.30;1.83;;;;;;;;;;4975402;28;20486;-82
2023/04/13 04:35:50;;;;;;;0.83;0.83;;;;;;;;;;4979103;28;20475;-84
2023/04/13 04:38:16;;;;;;;1.90;1.83;;;;;;;;;;4988725;28;20453;-82
2023/04/13 04:40:44;;;;;;;1.53;1.37;;;;;;;;;;4998656;28;20801;-83
2023/04/13 04:43:12;;;;;;;1.73;1.73;;;;;;;;;;4995988;28;20436;-83
2023/04/13 04:45:40;;;;;;;0.97;0.97;;;;;;;;;;4994994;28;20415;-82
2023/04/13 04:48:06;;;;;;;0.80;0.80;;;;;;;;;;4986609;28;20455;-83
2023/04/13 04:50:32;;;;;;;1.43;1.43;;;;;;;;;;5000782;28;20461;-82
2023/04/13 04:52:59;;;;;;;0.60;0.60;;;;;;;;;;4977331;28;20473;-83
2023/04/13 04:55:25;;;;;;;1.57;1.33;;;;;;;;;;4987645;28;20526;-83
2023/04/13 04:57:51;;;;;;;3.20;1.63;;;;;;;;;;5006177;28;20460;-81
2023/04/13 05:00:17;;;;;;;1.20;1.20;;;;;;;;;;4983733;28;20767;-84
2023/04/13 05:02:43;;;;;;;1.50;1.40;;;;;;;;;;5002613;28;20821;-84
2023/04/13 05:05:10;;;;;;;1.80;1.23;;;;;;;;;;4988180;28;20421;-83
2023/04/13 05:07:37;;;;;;;1.33;1.23;;;;;;;;;;4998865;28;20432;-83
2023/04/13 05:10:03;;;;;;;1.07;0.97;;;;;;;;;;4989948;28;20421;-84
2023/04/13 05:12:29;;;;;;;2.30;2.20;;;;;;;;;;4992981;28;20434;-82
2023/04/13 05:14:55;;;;;;;0.77;0.77;;;;;;;;;;5003180;28;20421;-84
2023/04/13 05:17:24;;;;;;;2.63;2.30;;;;;;;;;;4982551;28;20472;-81
2023/04/13 05:19:50;;;;;;;1.23;1.23;;;;;;;;;;4986553;28;20540;-82
2023/04/13 05:22:17;;;;;;;1.83;1.83;;;;;;;;;;4969922;28;20848;-83
2023/04/13 05:24:43;;;;;;;1.40;1.40;;;;;;;;;;4984598;28;20433;-83
2023/04/13 05:27:10;;;;;;;2.07;1.90;;;;;;;;;;5000496;28;20444;-83
2023/04/13 05:29:36;;;;;;;1.40;1.40;;;;;;;;;;5006362;28;20397;-81
2023/04/13 05:32:03;;;;;;;1.67;1.57;;;;;;;;;;4998491;28;20429;-81
2023/04/13 05:34:29;;;;;;;1.10;1.10;;;;;;;;;;4977630;28;20751;-80
2023/04/13 05:36:56;;;;;;;3.03;2.93;;;;;;;;;;4977676;28;20852;-80
2023/04/13 05:39:23;;;;;;;3.00;2.90;;;;;;;;;;4978335;28;20464;-83
2023/04/13 05:41:49;;;;;;;1.00;1.00;;;;;;;;;;4992658;28;20428;-81
2023/04/13 05:44:15;;;;;;;2.80;2.70;;;;;;;;;;4950710;28;20448;-81
2023/04/13 05:46:41;;;;;;;3.43;3.33;;;;;;;;;;4991590;28;20442;-82
2023/04/13 05:49:08;;;;;;;2.73;2.73;;;;;;;;;;4981284;28;20429;-81
2023/04/13 05:51:34;;;;;;;2.67;2.57;;;;;;;;;;4979862;28;20495;-82
2023/04/13 05:54:01;;;;;;;6.57;3.47;;;;;;;;;;4961225;28;20880;-81
2023/04/13 05:56:30;;;;;;;11.97;11.13;;;;;;;;;;4958609;28;20572;-81
2023/04/13 05:58:56;;;;;;;2.30;2.20;;;;;;;;;;4963334;29;20402;-83
2023/04/13 06:01:23;;;;;;;12.90;11.90;;;;;;;;;;4964971;28;20453;-83
2023/04/13 06:03:49;;;;;;;2.57;2.57;;;;;;;;;;4966477;28;20407;-81
2023/04/13 06:06:16;;;;;;;3.07;2.73;;;;;;;;;;4971212;28;20493;-82
2023/04/13 06:08:42;;;;;;;7.00;6.60;;;;;;;;;;4968101;28;20461;-81
2023/04/13 06:11:08;;;;;;;6.23;3.57;;;;;;;;;;4966380;28;20445;-81
2023/04/13 06:13:35;;;;;;;4.47;4.17;;;;;;;;;;4965900;28;20442;-82
2023/04/13 06:16:01;;;;;;;3.83;3.60;;;;;;;;;;4969534;28;20470;-82
2023/04/13 06:18:27;;;;;;;2.93;2.83;;;;;;;;;;4963383;28;20549;-82
2023/04/13 06:20:54;;;;;;;2.70;2.60;;;;;;;;;;4975771;28;20462;-81
2023/04/13 06:23:20;;;;;;;2.80;2.80;;;;;;;;;;4981927;28;20441;-82
2023/04/13 06:25:47;;;;;;;1.93;1.83;;;;;;;;;;4962620;28;20459;-82
2023/04/13 06:28:13;;;;;;;2.63;2.40;;;;;;;;;;4964481;28;20442;-83
2023/04/13 06:31:02;;;;;;;2.93;2.20;;;;;;;;;;4989213;28;20469;-76
2023/04/13 06:33:28;;;;;;;1.93;1.83;;;;;;;;;;5569282;23;20484;-83
2023/04/13 06:35:54;;;;;;;2.20;2.20;;;;;;;;;;4987543;28;20477;-82
2023/04/13 06:38:22;;;;;;;2.73;2.67;;;;;;;;;;4989956;28;20441;-82
2023/04/13 06:40:48;;;;;;;2.20;2.10;;;;;;;;;;4979381;28;20420;-81
2023/04/13 06:43:14;;;;;;;5.30;4.10;;;;;;;;;;4974505;28;20531;-82
2023/04/13 06:45:41;;;;;;;2.70;2.60;;;;;;;;;;4969961;28;20456;-80
2023/04/13 06:48:07;;;;;;;2.70;2.70;;;;;;;;;;4970676;28;20429;-82
2023/04/13 06:50:33;;;;;;;2.83;2.73;;;;;;;;;;4966202;28;20466;-82
2023/04/13 06:52:59;;;;;;;4.73;2.20;;;;;;;;;;4984873;28;20429;-82
2023/04/13 06:55:25;;;;;;;2.40;2.30;;;;;;;;;;4978978;28;20544;-83
2023/04/13 06:57:51;;;;;;;5.37;2.83;;;;;;;;;;4977963;28;20823;-81
2023/04/13 07:00:17;;;;;;;5.10;3.20;;;;;;;;;;4964174;28;20441;-83
2023/04/13 07:02:43;;;;;;;2.50;2.40;;;;;;;;;;4968924;28;20961;-80
2023/04/13 07:05:10;;;;;;;1.70;1.70;;;;;;;;;;4976435;28;20425;-80
2023/04/13 07:07:42;;;;;;;2.40;2.40;;;;;;;;;;4979534;28;20441;-81
2023/04/13 07:10:08;;;;;;;3.37;3.27;;;;;;;;;;4967846;28;20446;-82
2023/04/13 07:12:34;;;;;;;3.43;2.70;;;;;;;;;;4972413;28;20445;-83
2023/04/13 07:15:02;;;;;;;3.30;3.00;;;;;;;;;;4972678;28;20448;-82
2023/04/13 07:17:30;;;;;;;2.20;2.10;;;;;;;;;;4970275;28;20460;-81
2023/04/13 07:19:56;;;;;;;3.27;2.80;;;;;;;;;;4971103;28;20452;-80
2023/04/13 07:22:30;;;;;;;1.90;1.80;;;;;;;;;;4972939;28;20433;-80
2023/04/13 07:24:56;;;;;;;2.10;1.80;;;;;;;;;;4957206;28;20425;-80
2023/04/13 07:27:28;;;;;;;1.53;1.53;;;;;;;;;;4947898;28;20454;-79
2023/04/13 07:29:54;;;;;;;2.00;1.90;;;;;;;;;;4946489;28;20772;-81
2023/04/13 07:32:20;;;;;;;3.80;1.73;;;;;;;;;;4967606;28;20859;-80
2023/04/13 07:34:49;;;;;;;1.57;1.57;;;;;;;;;;4969153;28;20477;-80
2023/04/13 07:37:15;;;;;;;2.17;2.07;;;;;;;;;;4966852;28;20461;-80
2023/04/13 07:39:42;;;;;;;2.43;2.43;;;;;;;;;;4959513;28;20511;-80
2023/04/13 07:42:09;;;;;;;1.63;1.57;;;;;;;;;;4972830;28;20462;-79
2023/04/13 07:44:35;;;;;;;2.80;2.10;;;;;;;;;;4962374;28;21158;-77
2023/04/13 07:47:01;;;;;;;6.83;3.10;;;;;;;;;;4964278;28;20445;-77
2023/04/13 07:49:27;;;;;;;3.70;1.10;;;;;;;;;;4968142;28;20482;-76
2023/04/13 07:51:53;;;;;;;1.57;1.57;;;;;;;;;;4959053;28;21032;-76
2023/04/13 07:54:20;;;;;;;2.57;2.57;;;;;;;;;;4955768;28;20950;-76
2023/04/13 07:56:46;;;;;;;2.57;2.47;;;;;;;;;;4950640;28;20500;-78
2023/04/13 07:59:13;;;;;;;1.90;1.90;;;;;;;;;;4965459;28;20461;-77
2023/04/13 08:01:39;;;;;;;1.97;1.97;;;;;;;;;;4957574;28;20917;-77
2023/04/13 08:04:05;;;;;;;1.73;1.73;;;;;;;;;;4968184;28;20421;-76
2023/04/13 08:06:31;;;;;;;3.10;2.93;;;;;;;;;;4957393;28;20429;-77
2023/04/13 08:08:57;;;;;;;1.57;1.57;;;;;;;;;;4966296;28;20457;-75
2023/04/13 08:11:23;;;;;;;1.77;1.77;;;;;;;;;;4957295;28;20442;-76
2023/04/13 08:13:49;;;;;;;3.10;2.37;;;;;;;;;;4954249;28;20444;-74
2023/04/13 08:16:15;;;;;;;3.00;2.80;;;;;;;;;;4935286;28;20461;-75
2023/04/13 08:18:42;;;;;;;4.50;4.40;;;;;;;;;;4961877;28;20662;-76
2023/04/13 08:21:11;;;;;;;2.43;1.93;;;;;;;;;;4963870;28;20560;-76
2023/04/13 08:23:40;;;;;;;4.23;4.13;;;;;;;;;;4961509;28;20410;-77
2023/04/13 08:26:06;;;;;;;3.60;3.40;;;;;;;;;;4937052;28;20815;-77
2023/04/13 08:28:32;;;;;;;4.27;4.17;;;;;;;;;;4965108;28;21042;-76
2023/04/13 08:30:58;;;;;;;4.37;4.03;;;;;;;;;;4930963;29;20457;-77
2023/04/13 08:33:24;;;;;;;5.70;5.40;;;;;;;;;;4941479;28;20477;-77
2023/04/13 08:35:50;;;;;;;7.63;7.37;;;;;;;;;;4955530;28;20476;-77
2023/04/13 08:38:18;;;;;;;4.87;4.50;;;;;;;;;;4957107;28;20504;-75
2023/04/13 08:40:45;;;;;;;4.30;4.10;;;;;;;;;;4957536;28;20441;-77
2023/04/13 08:43:12;;;;;;;3.80;3.63;;;;;;;;;;4957992;28;20429;-77
2023/04/13 08:45:41;;;;;;;10.20;9.57;;;;;;;;;;4954009;28;20942;-79
2023/04/13 08:48:08;;;;;;;5.67;5.27;;;;;;;;;;4964593;28;20449;-79
2023/04/13 08:50:34;;;;;;;8.90;8.20;;;;;;;;;;4962386;28;20433;-79
2023/04/13 08:53:00;;;;;;;4.57;4.30;;;;;;;;;;4975243;28;20453;-78
2023/04/13 08:55:28;;;;;;;9.77;9.17;;;;;;;;;;4966391;28;20445;-80
2023/04/13 08:57:56;;;;;;;7.70;7.23;;;;;;;;;;4960383;28;20552;-80
2023/04/13 09:00:22;;;;;;;6.00;5.70;;;;;;;;;;4950558;28;20430;-78
2023/04/13 09:02:53;;;;;;;7.00;6.53;;;;;;;;;;4948605;28;20773;-78
2023/04/13 09:05:21;;;;;;;7.13;6.83;;;;;;;;;;4948108;28;20505;-80
2023/04/13 09:07:52;;;;;;;8.87;8.23;;;;;;;;;;4981633;28;20453;-82
2023/04/13 09:10:24;;;;;;;5.80;5.20;;;;;;;;;;4973571;28;20744;-80
2023/04/13 09:12:50;;;;;;;2.77;2.57;;;;;;;;;;4975579;28;20425;-81
2023/04/13 09:15:19;;;;;;;5.47;5.00;;;;;;;;;;4979258;28;20480;-83
2023/04/13 09:17:45;;;;;;;7.50;6.20;;;;;;;;;;4962244;28;20536;-83
2023/04/13 09:20:21;;;;;;;4.73;4.40;;;;;;;;;;4975548;28;20435;-83
2023/04/13 09:22:50;;;;;;;7.07;5.03;;;;;;;;;;4964883;28;20425;-83
2023/04/13 09:25:21;;;;;;;7.77;7.07;;;;;;;;;;4986043;28;20766;-79
2023/04/13 09:27:47;;;;;;;8.30;7.80;;;;;;;;;;4968236;28;20430;-80
2023/04/13 09:30:13;;;;;;;10.30;6.47;;;;;;;;;;4966745;28;20445;-80
2023/04/13 09:32:39;;;;;;;15.40;14.40;;;;;;;;;;4969725;28;20432;-79
2023/04/13 09:35:10;;;;;;;6.57;6.07;;;;;;;;;;4942471;28;20476;-81
2023/04/13 09:37:38;;;;;;;5.87;5.27;;;;;;;;;;4954994;28;21066;-79
2023/04/13 09:40:09;;;;;;;4.80;4.43;;;;;;;;;;4955096;28;20465;-80
2023/04/13 09:42:35;;;;;;;8.70;8.30;;;;;;;;;;4964264;28;20469;-80
2023/04/13 09:45:01;;;;;;;8.10;7.70;;;;;;;;;;4940899;28;20477;-80
2023/04/13 09:47:35;;;;;;;7.67;6.93;;;;;;;;;;4953146;28;20474;-79
2023/04/13 09:50:03;;;;;;;8.40;7.60;;;;;;;;;;4957134;28;20503;-80
2023/04/13 09:52:30;;;;;;;7.73;7.10;;;;;;;;;;4950783;28;20445;-79
2023/04/13 09:54:57;;;;;;;5.30;5.10;;;;;;;;;;4950639;28;20446;-80
2023/04/13 09:57:24;;;;;;;5.00;4.43;;;;;;;;;;4955382;28;20501;-81
2023/04/13 09:59:51;;;;;;;5.67;5.27;;;;;;;;;;4958427;28;20573;-80
2023/04/13 10:02:18;;;;;;;3.73;3.53;;;;;;;;;;4974654;28;20815;-81
2023/04/13 10:04:44;;;;;;;10.43;9.70;;;;;;;;;;4969064;28;20442;-79
2023/04/13 10:07:12;;;;;;;5.10;5.00;;;;;;;;;;4968434;28;20436;-84
2023/04/13 10:09:38;;;;;;;5.03;4.63;;;;;;;;;;4962514;28;20552;-81
2023/04/13 10:12:04;;;;;;;8.43;8.03;;;;;;;;;;4983947;28;20495;-80
2023/04/13 10:14:35;;;;;;;8.67;7.97;;;;;;;;;;4964797;28;20440;-81
2023/04/13 10:17:21;;;;;;;5.17;4.93;;;;;;;;;;4970511;28;20480;-81
2023/04/13 10:19:51;;;;;;;13.70;6.07;;;;;;;;;;4951975;28;20512;-82
2023/04/13 10:22:19;;;;;;;10.43;9.80;;;;;;;;;;4967691;28;20447;-80
2023/04/13 10:24:45;;;;;;;9.63;7.40;;;;;;;;;;4955109;28;20433;-76
2023/04/13 10:27:13;;;;;;;10.10;9.27;;;;;;;;;;4973656;28;21005;-77
2023/04/13 10:29:39;;;;;;;7.93;7.30;;;;;;;;;;4938779;28;20457;-78
2023/04/13 10:32:06;;;;;;;8.60;8.00;;;;;;;;;;4942369;28;20427;-79
2023/04/13 10:34:33;;;;;;;4.25;2.50;;;;;;;;;;4966522;28;20496;-79
2023/04/13 10:37:07;;;;;;;3.70;3.53;;;;;;;;;;4956429;28;20488;-80
2023/04/13 10:39:34;;;;;;;8.73;4.80;;;;;;;;;;4969051;28;20867;-80
2023/04/13 10:42:00;;;;;;;13.33;3.73;;;;;;;;;;4964432;28;20423;-80
2023/04/13 10:44:27;;;;;;;5.20;4.90;;;;;;;;;;4957350;28;20443;-79
2023/04/13 10:46:53;;;;;;;7.63;5.10;;;;;;;;;;4960556;28;20496;-77
2023/04/13 10:49:29;;;;;;;13.47;7.10;;;;;;;;;;4955337;28;20488;-76
2023/04/13 10:51:55;;;;;;;6.10;5.80;;;;;;;;;;4953851;28;20425;-77
2023/04/13 10:54:22;;;;;;;7.20;6.67;;;;;;;;;;4952413;28;20441;-76
2023/04/13 10:57:07;;;;;;;4.40;4.00;;;;;;;;;;4972674;28;20504;-79
2023/04/13 10:59:36;;;;;;;4.43;4.07;;;;;;;;;;4953124;28;20973;-80
2023/04/13 11:02:09;;;;;;;5.00;4.70;;;;;;;;;;4962873;28;20461;-80
2023/04/13 11:04:42;;;;;;;3.03;2.93;;;;;;;;;;4946365;28;20586;-82
2023/04/13 11:07:48;;;;;;;4.07;3.80;;;;;;;;;;4957907;28;20509;-81
2023/04/13 11:10:26;;;;;;;5.33;3.90;;;;;;;;;;4917416;29;20462;-80
2023/04/13 11:12:56;;;;;;;4.20;2.57;;;;;;;;;;5007349;28;20435;-80
2023/04/13 11:15:45;;;;;;;4.50;2.73;;;;;;;;;;4975366;28;20505;-79
2023/04/13 11:18:24;;;;;;;35.70;32.20;;;;;;;;;;4960107;28;20858;-79
2023/04/13 11:20:50;;;;;;;4.27;3.87;;;;;;;;;;4964934;28;20473;-80
2023/04/13 11:23:22;;;;;;;15.00;13.57;;;;;;;;;;4956592;28;20936;-80
2023/04/13 11:25:52;;;;;;;11.67;3.67;;;;;;;;;;4971542;28;20429;-80
2023/04/13 11:28:21;;;;;;;6.13;3.70;;;;;;;;;;4985526;28;20434;-83
2023/04/13 11:30:55;;;;;;;4.03;1.73;;;;;;;;;;4971354;29;20432;-83
2023/04/13 11:33:34;;;;;;;4.77;4.27;;;;;;;;;;4988570;28;20471;-82
2023/04/13 11:36:02;;;;;;;3.80;2.70;;;;;;;;;;4981966;28;20448;-83
2023/04/13 11:38:29;;;;;;;7.63;2.10;;;;;;;;;;4978928;28;20441;-81
2023/04/13 11:41:02;;;;;;;2.50;2.30;;;;;;;;;;4985054;28;20422;-81
2023/04/13 11:43:28;;;;;;;0.83;0.83;;;;;;;;;;4983430;28;21195;-84
2023/04/13 11:45:55;;;;;;;3.37;3.07;;;;;;;;;;4971006;29;20406;-82
2023/04/13 11:48:21;;;;;;;15.50;13.33;;;;;;;;;;4981140;28;20417;-81
2023/04/13 11:50:48;;;;;;;3.97;3.23;;;;;;;;;;4982316;28;20436;-80
2023/04/13 11:53:15;;;;;;;13.90;12.60;;;;;;;;;;4984464;28;20504;-82
2023/04/13 11:55:41;;;;;;;5.97;4.97;;;;;;;;;;4980941;28;20425;-83
2023/04/13 11:58:14;;;;;;;7.10;6.60;;;;;;;;;;4990661;28;20453;-82
2023/04/13 12:00:42;;;;;;;3.97;3.77;;;;;;;;;;4989702;28;20437;-83
2023/04/13 12:03:15;;;;;;;5.73;3.73;;;;;;;;;;4965234;28;20447;-80
2023/04/13 12:05:42;;;;;;;2.00;2.00;;;;;;;;;;4974513;28;20394;-82
2023/04/13 12:08:08;;;;;;;3.37;3.27;;;;;;;;;;4949159;28;20749;-80
2023/04/13 12:10:35;;;;;;;7.00;3.60;;;;;;;;;;4959030;28;20418;-80
2023/04/13 12:13:07;;;;;;;14.87;4.23;;;;;;;;;;4961433;28;20469;-79
2023/04/13 12:15:35;;;;;;;6.57;6.03;;;;;;;;;;4974184;28;20481;-79
2023/04/13 12:18:03;;;;;;;4.57;4.23;;;;;;;;;;4972422;28;20418;-81
2023/04/13 12:20:37;;;;;;;7.20;6.60;;;;;;;;;;4984233;28;20524;-83
2023/04/13 12:23:04;;;;;;;4.97;3.90;;;;;;;;;;4960908;28;20422;-83
2023/04/13 12:25:31;;;;;;;3.90;3.57;;;;;;;;;;4982880;28;20425;-82
2023/04/13 12:27:58;;;;;;;4.00;3.23;;;;;;;;;;4975114;28;20565;-84
2023/04/13 12:30:25;;;;;;;3.83;3.53;;;;;;;;;;4963564;28;20416;-83
2023/04/13 12:32:52;;;;;;;1.83;1.77;;;;;;;;;;4972281;28;20220;-83
2023/04/13 12:35:18;;;;;;;5.10;2.40;;;;;;;;;;4965969;28;20865;-80
2023/04/13 12:37:45;;;;;;;3.30;3.20;;;;;;;;;;4969135;28;20433;-82
2023/04/13 12:40:12;;;;;;;3.13;2.67;;;;;;;;;;4968007;28;20445;-79
2023/04/13 12:42:41;;;;;;;4.67;4.20;;;;;;;;;;4982086;28;20425;-81
2023/04/13 12:45:07;;;;;;;4.37;2.90;;;;;;;;;;4968999;28;20809;-79
2023/04/13 12:47:33;;;;;;;3.73;3.63;;;;;;;;;;4947681;28;20464;-80
2023/04/13 12:49:59;;;;;;;1.53;1.53;;;;;;;;;;4948651;28;20442;-82
2023/04/13 12:52:28;;;;;;;6.60;6.20;;;;;;;;;;4974417;28;20436;-81
2023/04/13 12:54:54;;;;;;;4.23;4.00;;;;;;;;;;4954375;28;20445;-81
2023/04/13 12:57:20;;;;;;;5.33;4.40;;;;;;;;;;4955986;28;20957;-83
2023/04/13 12:59:46;;;;;;;3.70;3.37;;;15.20;99.90;;;;;;4949638;28;21033;-82
2023/04/13 13:02:11;;;;;;;9.97;5.13;;;14.40;99.90;;;;;;4962105;28;20894;-83
2023/04/13 13:04:37;;;;;;;3.77;3.20;;;13.90;99.90;;;;;;4968201;28;20204;-82
2023/04/13 13:07:03;;;;;;;4.40;3.80;;;13.80;99.90;;;;;;4959123;28;20236;-82
2023/04/13 13:09:28;;;;;;;3.87;3.53;;;14.30;99.90;;;;;;4953704;28;20225;-81
2023/04/13 13:11:55;;;;;;;12.30;11.20;;;13.20;99.90;;;;;;4958034;28;20426;-82
2023/04/13 13:14:21;;;;;;;4.33;4.10;;;;;;;;;;4984281;28;20294;-83
2023/04/13 13:16:49;;;;;;;7.77;7.10;;;;;;;;;;4979695;28;20505;-83
2023/04/13 13:19:15;;;;;;;3.73;3.43;;;;;;;;;;4971790;28;20440;-82
2023/04/13 13:21:41;;;;;;;7.93;2.50;;;16.50;99.90;;;;;;4963999;28;20426;-78
2023/04/13 13:24:07;;;;;;;5.90;3.73;;;15.90;99.90;;;;;;4956413;28;20445;-82
2023/04/13 13:26:33;;;;;;;5.37;2.20;;;15.50;99.90;;;;;;4956719;28;20466;-80
2023/04/13 13:29:00;;;;;;;3.73;2.80;;;;;;;;;;4957185;28;21330;-81
2023/04/13 13:31:26;;;;;;;6.63;4.23;;;14.90;99.90;;;;;;4953231;28;20437;-81
2023/04/13 13:33:53;;;;;;;3.37;2.83;;;14.80;99.90;;;;;;4946899;28;20508;-81
2023/04/13 13:36:18;;;;;;;4.37;1.83;;;14.70;99.90;;;;;;4944878;28;20468;-81
2023/04/13 13:38:45;;;;;;;2.50;2.30;;;14.90;99.90;;;;;;4951860;28;20454;-82
2023/04/13 13:41:11;;;;;;;3.57;3.30;;;15.30;99.90;;;;;;4954647;28;20193;-81
2023/04/13 13:43:37;;;;;;;2.60;2.07;;;15.50;99.90;;;;;;4971448;28;20839;-82
2023/04/13 13:46:04;;;;;;;8.93;1.80;;;14.90;99.90;;;;;;4956439;28;20186;-81
2023/04/13 13:48:30;;;;;;;1.83;1.73;;;14.90;99.90;;;;;;4952689;28;20481;-80
2023/04/13 13:50:56;;;;;;;2.10;1.97;;;;;;;;;;4969582;28;20774;-82
2023/04/13 13:53:22;;;;;;;4.93;2.50;;;;;;;;;;4979538;28;20460;-79
2023/04/13 13:55:51;;;;;;;2.37;1.70;;;;;;;;;;4960638;28;20437;-82
2023/04/13 13:58:17;;;;;;;2.00;1.90;;;;;;;;;;4961009;28;20459;-82
2023/04/13 14:00:44;;;;;;;3.03;2.20;;;;;;;;;;4971284;28;20548;-82
2023/04/13 14:03:10;;;;;;;3.50;1.70;;;;;;;;;;4950340;28;20432;-82
2023/04/13 14:05:36;;;;;;;2.23;2.10;;;;;;;;;;4965233;28;20507;-83
2023/04/13 14:08:02;;;;;;;1.83;1.67;;;;;;;;;;4969451;28;20516;-82
2023/04/13 14:10:29;;;;;;;2.97;2.77;;;;;;;;;;4945902;29;20434;-81
2023/04/13 14:12:55;;;;;;;5.03;2.53;;;;;;;;;;4954906;28;20449;-82
2023/04/13 14:15:21;;;;;;;2.53;2.40;;;;;;;;;;4955280;28;20436;-81
2023/04/13 14:17:47;;;;;;;2.20;2.07;;;;;;;;;;4950535;28;20454;-78
2023/04/13 14:20:14;;;;;;;2.37;2.10;;;;;;;;;;4966610;28;20542;-80
2023/04/13 14:22:40;;;;;;;2.87;2.23;;;;;;;;;;4960493;28;20521;-83
2023/04/13 14:25:10;;;;;;;4.27;2.67;;;;;;;;;;4959933;28;20454;-80
2023/04/13 14:27:37;;;;;;;2.87;2.63;;;;;;;;;;4956422;28;20487;-80
2023/04/13 14:30:04;;;;;;;5.30;2.57;;;;;;;;;;4967274;28;20452;-80
2023/04/13 14:32:30;;;;;;;3.17;2.37;;;;;;;;;;4959925;28;20472;-81
2023/04/13 14:34:56;;;;;;;1.77;1.77;;;;;;;;;;4962490;28;20572;-81
2023/04/13 14:37:23;;;;;;;3.80;2.60;;;;;;;;;;4968939;28;21028;-80
2023/04/13 14:39:53;;;;;;;2.60;2.50;;;;;;;;;;4973959;28;20444;-79
2023/04/13 14:42:20;;;;;;;3.20;2.90;;;;;;;;;;4962332;28;21042;-79
2023/04/13 14:44:46;;;;;;;3.60;2.80;;;;;;;;;;4967751;28;20463;-83